sensor_id;sensor_type;location;lat;lon;timestamp;P1;durP1;ratioP1;P2;durP2;ratioP2
12363;SDS011;6246;50.826;4.712;2023-04-25T00:00:33;20.80;;;14.13;;
12363;SDS011;6246;50.826;4.712;2023-04-25T00:02:59;19.47;;;13.40;;
12363;SDS011;6246;50.826;4.712;2023-04-25T00:05:28;20.23;;;14.63;;
12363;SDS011;6246;50.826;4.712;2023-04-25T00:07:54;19.87;;;13.30;;
12363;SDS011;6246;50.826;4.712;2023-04-25T00:10:21;18.57;;;13.23;;
12363;SDS011;6246;50.826;4.712;2023-04-25T00:12:47;19.10;;;14.13;;
12363;SDS011;6246;50.826;4.712;2023-04-25T00:15:13;20.80;;;13.80;;
12363;SDS011;6246;50.826;4.712;2023-04-25T00:17:40;17.67;;;13.37;;
12363;SDS011;6246;50.826;4.712;2023-04-25T00:20:06;19.20;;;13.13;;
12363;SDS011;6246;50.826;4.712;2023-04-25T00:22:35;19.23;;;14.00;;
12363;SDS011;6246;50.826;4.712;2023-04-25T00:25:03;17.20;;;12.87;;
12363;SDS011;6246;50.826;4.712;2023-04-25T00:27:29;18.33;;;12.60;;
12363;SDS011;6246;50.826;4.712;2023-04-25T00:29:55;18.83;;;13.13;;
12363;SDS011;6246;50.826;4.712;2023-04-25T00:32:21;17.93;;;13.30;;
12363;SDS011;6246;50.826;4.712;2023-04-25T00:34:47;18.00;;;12.63;;
12363;SDS011;6246;50.826;4.712;2023-04-25T00:37:13;17.30;;;12.37;;
12363;SDS011;6246;50.826;4.712;2023-04-25T00:39:39;18.00;;;12.83;;
12363;SDS011;6246;50.826;4.712;2023-04-25T00:42:05;16.90;;;12.23;;
12363;SDS011;6246;50.826;4.712;2023-04-25T00:44:31;17.63;;;11.67;;
12363;SDS011;6246;50.826;4.712;2023-04-25T00:46:57;19.63;;;12.83;;
12363;SDS011;6246;50.826;4.712;2023-04-25T00:49:23;19.90;;;12.33;;
12363;SDS011;6246;50.826;4.712;2023-04-25T00:51:49;17.73;;;12.00;;
12363;SDS011;6246;50.826;4.712;2023-04-25T00:54:15;17.93;;;11.80;;
12363;SDS011;6246;50.826;4.712;2023-04-25T00:56:41;17.90;;;12.33;;
12363;SDS011;6246;50.826;4.712;2023-04-25T00:59:09;20.30;;;12.60;;
12363;SDS011;6246;50.826;4.712;2023-04-25T01:01:35;21.77;;;13.20;;
12363;SDS011;6246;50.826;4.712;2023-04-25T01:04:02;20.03;;;13.43;;
12363;SDS011;6246;50.826;4.712;2023-04-25T01:06:28;22.13;;;13.47;;
12363;SDS011;6246;50.826;4.712;2023-04-25T01:08:55;19.90;;;12.73;;
12363;SDS011;6246;50.826;4.712;2023-04-25T01:11:21;23.57;;;13.67;;
12363;SDS011;6246;50.826;4.712;2023-04-25T01:13:47;19.23;;;13.17;;
12363;SDS011;6246;50.826;4.712;2023-04-25T01:16:13;20.53;;;13.03;;
12363;SDS011;6246;50.826;4.712;2023-04-25T01:18:40;18.93;;;12.73;;
12363;SDS011;6246;50.826;4.712;2023-04-25T01:21:09;17.97;;;11.93;;
12363;SDS011;6246;50.826;4.712;2023-04-25T01:23:36;19.27;;;13.10;;
12363;SDS011;6246;50.826;4.712;2023-04-25T01:26:03;21.00;;;12.53;;
12363;SDS011;6246;50.826;4.712;2023-04-25T01:28:29;20.27;;;13.30;;
12363;SDS011;6246;50.826;4.712;2023-04-25T01:30:56;21.30;;;13.10;;
12363;SDS011;6246;50.826;4.712;2023-04-25T01:33:22;18.13;;;12.70;;
12363;SDS011;6246;50.826;4.712;2023-04-25T01:35:48;19.33;;;13.33;;
12363;SDS011;6246;50.826;4.712;2023-04-25T01:38:14;19.23;;;12.50;;
12363;SDS011;6246;50.826;4.712;2023-04-25T01:40:40;19.87;;;12.90;;
12363;SDS011;6246;50.826;4.712;2023-04-25T01:43:07;18.73;;;12.63;;
12363;SDS011;6246;50.826;4.712;2023-04-25T01:45:36;21.23;;;13.17;;
12363;SDS011;6246;50.826;4.712;2023-04-25T01:48:05;22.90;;;12.23;;
12363;SDS011;6246;50.826;4.712;2023-04-25T01:50:31;23.37;;;13.03;;
12363;SDS011;6246;50.826;4.712;2023-04-25T01:52:57;21.07;;;12.57;;
12363;SDS011;6246;50.826;4.712;2023-04-25T01:55:23;18.73;;;12.20;;
12363;SDS011;6246;50.826;4.712;2023-04-25T01:57:49;21.50;;;12.17;;
12363;SDS011;6246;50.826;4.712;2023-04-25T02:00:15;28.83;;;12.93;;
12363;SDS011;6246;50.826;4.712;2023-04-25T02:02:41;21.17;;;12.10;;
12363;SDS011;6246;50.826;4.712;2023-04-25T02:05:07;19.47;;;11.70;;
12363;SDS011;6246;50.826;4.712;2023-04-25T02:07:33;19.67;;;11.93;;
12363;SDS011;6246;50.826;4.712;2023-04-25T02:09:59;27.40;;;12.70;;
12363;SDS011;6246;50.826;4.712;2023-04-25T02:12:25;17.83;;;11.80;;
12363;SDS011;6246;50.826;4.712;2023-04-25T02:14:52;17.87;;;12.23;;
12363;SDS011;6246;50.826;4.712;2023-04-25T02:17:18;17.90;;;11.13;;
12363;SDS011;6246;50.826;4.712;2023-04-25T02:19:44;19.47;;;11.63;;
12363;SDS011;6246;50.826;4.712;2023-04-25T02:22:10;18.90;;;11.50;;
12363;SDS011;6246;50.826;4.712;2023-04-25T02:24:36;19.57;;;12.07;;
12363;SDS011;6246;50.826;4.712;2023-04-25T02:27:02;16.13;;;11.00;;
12363;SDS011;6246;50.826;4.712;2023-04-25T02:29:29;19.00;;;11.73;;
12363;SDS011;6246;50.826;4.712;2023-04-25T02:31:55;17.27;;;11.40;;
12363;SDS011;6246;50.826;4.712;2023-04-25T02:34:21;19.37;;;10.63;;
12363;SDS011;6246;50.826;4.712;2023-04-25T02:36:47;17.23;;;10.87;;
12363;SDS011;6246;50.826;4.712;2023-04-25T02:39:15;18.20;;;10.90;;
12363;SDS011;6246;50.826;4.712;2023-04-25T02:41:41;16.03;;;10.40;;
12363;SDS011;6246;50.826;4.712;2023-04-25T02:44:07;14.70;;;9.80;;
12363;SDS011;6246;50.826;4.712;2023-04-25T02:46:33;20.10;;;10.53;;
12363;SDS011;6246;50.826;4.712;2023-04-25T02:48:59;16.13;;;10.27;;
12363;SDS011;6246;50.826;4.712;2023-04-25T02:51:25;18.03;;;9.77;;
12363;SDS011;6246;50.826;4.712;2023-04-25T02:53:51;15.57;;;10.53;;
12363;SDS011;6246;50.826;4.712;2023-04-25T02:56:17;17.17;;;9.50;;
12363;SDS011;6246;50.826;4.712;2023-04-25T02:58:43;15.23;;;10.40;;
12363;SDS011;6246;50.826;4.712;2023-04-25T03:01:10;15.03;;;9.43;;
12363;SDS011;6246;50.826;4.712;2023-04-25T03:03:36;14.00;;;9.67;;
12363;SDS011;6246;50.826;4.712;2023-04-25T03:06:02;14.23;;;9.43;;
12363;SDS011;6246;50.826;4.712;2023-04-25T03:08:28;14.00;;;9.57;;
12363;SDS011;6246;50.826;4.712;2023-04-25T03:10:57;12.93;;;9.57;;
12363;SDS011;6246;50.826;4.712;2023-04-25T03:13:23;14.90;;;9.30;;
12363;SDS011;6246;50.826;4.712;2023-04-25T03:15:49;15.13;;;8.90;;
12363;SDS011;6246;50.826;4.712;2023-04-25T03:18:16;17.53;;;9.00;;
12363;SDS011;6246;50.826;4.712;2023-04-25T03:20:42;16.27;;;9.30;;
12363;SDS011;6246;50.826;4.712;2023-04-25T03:23:08;14.40;;;9.07;;
12363;SDS011;6246;50.826;4.712;2023-04-25T03:25:34;16.57;;;8.60;;
12363;SDS011;6246;50.826;4.712;2023-04-25T03:28:00;13.30;;;8.90;;
12363;SDS011;6246;50.826;4.712;2023-04-25T03:30:26;15.20;;;8.73;;
12363;SDS011;6246;50.826;4.712;2023-04-25T03:32:52;12.07;;;8.47;;
12363;SDS011;6246;50.826;4.712;2023-04-25T03:35:18;11.67;;;8.07;;
12363;SDS011;6246;50.826;4.712;2023-04-25T03:37:45;13.50;;;8.60;;
12363;SDS011;6246;50.826;4.712;2023-04-25T03:40:11;12.20;;;7.90;;
12363;SDS011;6246;50.826;4.712;2023-04-25T03:42:37;13.33;;;8.27;;
12363;SDS011;6246;50.826;4.712;2023-04-25T03:45:04;15.03;;;8.40;;
12363;SDS011;6246;50.826;4.712;2023-04-25T03:47:30;13.97;;;7.50;;
12363;SDS011;6246;50.826;4.712;2023-04-25T03:49:56;12.00;;;7.73;;
12363;SDS011;6246;50.826;4.712;2023-04-25T03:52:22;13.67;;;7.57;;
12363;SDS011;6246;50.826;4.712;2023-04-25T03:54:48;11.80;;;7.50;;
12363;SDS011;6246;50.826;4.712;2023-04-25T03:57:14;13.27;;;7.77;;
12363;SDS011;6246;50.826;4.712;2023-04-25T03:59:40;12.57;;;7.23;;
12363;SDS011;6246;50.826;4.712;2023-04-25T04:02:06;12.40;;;7.17;;
12363;SDS011;6246;50.826;4.712;2023-04-25T04:04:32;11.43;;;7.60;;
12363;SDS011;6246;50.826;4.712;2023-04-25T04:06:58;10.43;;;7.27;;
12363;SDS011;6246;50.826;4.712;2023-04-25T04:09:24;12.20;;;7.47;;
12363;SDS011;6246;50.826;4.712;2023-04-25T04:11:51;12.30;;;7.13;;
12363;SDS011;6246;50.826;4.712;2023-04-25T04:14:17;12.27;;;7.30;;
12363;SDS011;6246;50.826;4.712;2023-04-25T04:16:43;13.37;;;6.63;;
12363;SDS011;6246;50.826;4.712;2023-04-25T04:19:09;13.50;;;6.80;;
12363;SDS011;6246;50.826;4.712;2023-04-25T04:21:35;10.77;;;6.80;;
12363;SDS011;6246;50.826;4.712;2023-04-25T04:24:01;11.50;;;6.53;;
12363;SDS011;6246;50.826;4.712;2023-04-25T04:26:27;15.43;;;7.07;;
12363;SDS011;6246;50.826;4.712;2023-04-25T04:28:54;10.47;;;6.27;;
12363;SDS011;6246;50.826;4.712;2023-04-25T04:31:20;10.93;;;6.00;;
12363;SDS011;6246;50.826;4.712;2023-04-25T04:33:47;10.07;;;6.03;;
12363;SDS011;6246;50.826;4.712;2023-04-25T04:36:13;13.20;;;6.43;;
12363;SDS011;6246;50.826;4.712;2023-04-25T04:38:39;12.77;;;6.17;;
12363;SDS011;6246;50.826;4.712;2023-04-25T04:41:06;9.10;;;5.73;;
12363;SDS011;6246;50.826;4.712;2023-04-25T04:43:32;9.23;;;5.63;;
12363;SDS011;6246;50.826;4.712;2023-04-25T04:45:58;10.47;;;6.23;;
12363;SDS011;6246;50.826;4.712;2023-04-25T04:48:24;12.93;;;6.70;;
12363;SDS011;6246;50.826;4.712;2023-04-25T04:50:51;8.90;;;5.90;;
12363;SDS011;6246;50.826;4.712;2023-04-25T04:53:17;10.13;;;5.83;;
12363;SDS011;6246;50.826;4.712;2023-04-25T04:55:43;12.33;;;5.33;;
12363;SDS011;6246;50.826;4.712;2023-04-25T04:58:09;10.47;;;5.63;;
12363;SDS011;6246;50.826;4.712;2023-04-25T05:00:35;9.17;;;5.60;;
12363;SDS011;6246;50.826;4.712;2023-04-25T05:03:01;8.13;;;5.50;;
12363;SDS011;6246;50.826;4.712;2023-04-25T05:05:27;11.40;;;5.90;;
12363;SDS011;6246;50.826;4.712;2023-04-25T05:07:53;7.67;;;5.30;;
12363;SDS011;6246;50.826;4.712;2023-04-25T05:10:19;8.27;;;5.03;;
12363;SDS011;6246;50.826;4.712;2023-04-25T05:12:45;10.43;;;5.07;;
12363;SDS011;6246;50.826;4.712;2023-04-25T05:15:11;9.10;;;5.53;;
12363;SDS011;6246;50.826;4.712;2023-04-25T05:17:38;8.87;;;5.67;;
12363;SDS011;6246;50.826;4.712;2023-04-25T05:20:04;7.67;;;4.90;;
12363;SDS011;6246;50.826;4.712;2023-04-25T05:22:31;9.70;;;4.97;;
12363;SDS011;6246;50.826;4.712;2023-04-25T05:24:57;8.83;;;5.27;;
12363;SDS011;6246;50.826;4.712;2023-04-25T05:27:23;9.73;;;4.90;;
12363;SDS011;6246;50.826;4.712;2023-04-25T05:29:49;7.63;;;4.97;;
12363;SDS011;6246;50.826;4.712;2023-04-25T05:32:16;7.43;;;4.87;;
12363;SDS011;6246;50.826;4.712;2023-04-25T05:34:42;8.13;;;4.90;;
12363;SDS011;6246;50.826;4.712;2023-04-25T05:37:08;9.23;;;4.77;;
12363;SDS011;6246;50.826;4.712;2023-04-25T05:39:34;7.50;;;4.70;;
12363;SDS011;6246;50.826;4.712;2023-04-25T05:42:00;8.87;;;5.30;;
12363;SDS011;6246;50.826;4.712;2023-04-25T05:44:26;8.00;;;4.80;;
12363;SDS011;6246;50.826;4.712;2023-04-25T05:46:52;9.10;;;4.60;;
12363;SDS011;6246;50.826;4.712;2023-04-25T05:49:19;7.13;;;4.63;;
12363;SDS011;6246;50.826;4.712;2023-04-25T05:51:44;7.50;;;4.90;;
12363;SDS011;6246;50.826;4.712;2023-04-25T05:54:10;8.50;;;4.60;;
12363;SDS011;6246;50.826;4.712;2023-04-25T05:56:36;10.50;;;4.93;;
12363;SDS011;6246;50.826;4.712;2023-04-25T05:59:02;8.93;;;4.40;;
12363;SDS011;6246;50.826;4.712;2023-04-25T06:01:28;8.87;;;4.57;;
12363;SDS011;6246;50.826;4.712;2023-04-25T06:03:55;9.17;;;4.20;;
12363;SDS011;6246;50.826;4.712;2023-04-25T06:06:21;6.97;;;4.40;;
12363;SDS011;6246;50.826;4.712;2023-04-25T06:08:47;7.87;;;4.20;;
12363;SDS011;6246;50.826;4.712;2023-04-25T06:11:13;7.20;;;4.67;;
12363;SDS011;6246;50.826;4.712;2023-04-25T06:13:39;7.77;;;4.30;;
12363;SDS011;6246;50.826;4.712;2023-04-25T06:16:05;5.43;;;4.13;;
12363;SDS011;6246;50.826;4.712;2023-04-25T06:18:32;6.93;;;4.20;;
12363;SDS011;6246;50.826;4.712;2023-04-25T06:20:58;8.00;;;4.33;;
12363;SDS011;6246;50.826;4.712;2023-04-25T06:23:24;7.80;;;4.40;;
12363;SDS011;6246;50.826;4.712;2023-04-25T06:25:50;6.23;;;3.80;;
12363;SDS011;6246;50.826;4.712;2023-04-25T06:28:16;8.00;;;4.20;;
12363;SDS011;6246;50.826;4.712;2023-04-25T06:30:42;7.13;;;4.10;;
12363;SDS011;6246;50.826;4.712;2023-04-25T06:33:08;7.13;;;4.03;;
12363;SDS011;6246;50.826;4.712;2023-04-25T06:35:34;7.10;;;4.33;;
12363;SDS011;6246;50.826;4.712;2023-04-25T06:38:00;7.87;;;4.43;;
12363;SDS011;6246;50.826;4.712;2023-04-25T06:40:26;6.77;;;3.87;;
12363;SDS011;6246;50.826;4.712;2023-04-25T06:42:52;8.30;;;4.10;;
12363;SDS011;6246;50.826;4.712;2023-04-25T06:45:18;6.70;;;3.83;;
12363;SDS011;6246;50.826;4.712;2023-04-25T06:47:44;4.83;;;3.50;;
12363;SDS011;6246;50.826;4.712;2023-04-25T06:50:10;6.97;;;4.10;;
12363;SDS011;6246;50.826;4.712;2023-04-25T06:52:36;7.87;;;4.13;;
12363;SDS011;6246;50.826;4.712;2023-04-25T06:55:02;7.27;;;4.03;;
12363;SDS011;6246;50.826;4.712;2023-04-25T06:57:29;5.37;;;3.93;;
12363;SDS011;6246;50.826;4.712;2023-04-25T06:59:56;10.63;;;4.30;;
12363;SDS011;6246;50.826;4.712;2023-04-25T07:02:22;7.77;;;3.90;;
12363;SDS011;6246;50.826;4.712;2023-04-25T07:04:48;6.03;;;3.20;;
12363;SDS011;6246;50.826;4.712;2023-04-25T07:07:14;5.80;;;3.57;;
12363;SDS011;6246;50.826;4.712;2023-04-25T07:09:40;8.27;;;3.97;;
12363;SDS011;6246;50.826;4.712;2023-04-25T07:12:06;6.07;;;3.20;;
12363;SDS011;6246;50.826;4.712;2023-04-25T07:14:32;6.37;;;3.60;;
12363;SDS011;6246;50.826;4.712;2023-04-25T07:16:58;8.07;;;3.77;;
12363;SDS011;6246;50.826;4.712;2023-04-25T07:19:24;7.90;;;3.70;;
12363;SDS011;6246;50.826;4.712;2023-04-25T07:21:51;7.23;;;4.10;;
12363;SDS011;6246;50.826;4.712;2023-04-25T07:24:17;6.93;;;3.70;;
12363;SDS011;6246;50.826;4.712;2023-04-25T07:26:44;9.33;;;3.80;;
12363;SDS011;6246;50.826;4.712;2023-04-25T07:29:10;5.60;;;3.50;;
12363;SDS011;6246;50.826;4.712;2023-04-25T07:31:36;6.13;;;3.30;;
12363;SDS011;6246;50.826;4.712;2023-04-25T07:34:02;5.17;;;3.27;;
12363;SDS011;6246;50.826;4.712;2023-04-25T07:36:28;5.27;;;3.60;;
12363;SDS011;6246;50.826;4.712;2023-04-25T07:38:55;9.57;;;4.10;;
12363;SDS011;6246;50.826;4.712;2023-04-25T07:41:21;6.47;;;3.20;;
12363;SDS011;6246;50.826;4.712;2023-04-25T07:43:48;6.33;;;3.17;;
12363;SDS011;6246;50.826;4.712;2023-04-25T07:46:14;5.63;;;3.10;;
12363;SDS011;6246;50.826;4.712;2023-04-25T07:48:40;6.63;;;3.57;;
12363;SDS011;6246;50.826;4.712;2023-04-25T07:51:06;5.33;;;3.33;;
12363;SDS011;6246;50.826;4.712;2023-04-25T07:53:32;8.00;;;3.57;;
12363;SDS011;6246;50.826;4.712;2023-04-25T07:55:59;5.83;;;3.57;;
12363;SDS011;6246;50.826;4.712;2023-04-25T07:58:25;5.47;;;3.03;;
12363;SDS011;6246;50.826;4.712;2023-04-25T08:00:51;7.63;;;3.37;;
12363;SDS011;6246;50.826;4.712;2023-04-25T08:03:17;5.60;;;3.53;;
12363;SDS011;6246;50.826;4.712;2023-04-25T08:05:43;6.90;;;3.40;;
12363;SDS011;6246;50.826;4.712;2023-04-25T08:08:10;7.20;;;3.70;;
12363;SDS011;6246;50.826;4.712;2023-04-25T08:10:36;7.83;;;3.73;;
12363;SDS011;6246;50.826;4.712;2023-04-25T08:13:02;6.13;;;2.80;;
12363;SDS011;6246;50.826;4.712;2023-04-25T08:15:28;10.60;;;3.87;;
12363;SDS011;6246;50.826;4.712;2023-04-25T08:17:54;10.70;;;3.83;;
12363;SDS011;6246;50.826;4.712;2023-04-25T08:20:20;6.87;;;3.43;;
12363;SDS011;6246;50.826;4.712;2023-04-25T08:22:46;7.50;;;3.10;;
12363;SDS011;6246;50.826;4.712;2023-04-25T08:25:13;7.67;;;3.83;;
12363;SDS011;6246;50.826;4.712;2023-04-25T08:27:39;7.00;;;3.40;;
12363;SDS011;6246;50.826;4.712;2023-04-25T08:30:06;5.93;;;2.77;;
12363;SDS011;6246;50.826;4.712;2023-04-25T08:32:33;5.10;;;2.63;;
12363;SDS011;6246;50.826;4.712;2023-04-25T08:35:02;6.30;;;3.47;;
12363;SDS011;6246;50.826;4.712;2023-04-25T08:37:29;8.90;;;3.40;;
12363;SDS011;6246;50.826;4.712;2023-04-25T08:39:55;5.50;;;3.10;;
12363;SDS011;6246;50.826;4.712;2023-04-25T08:42:21;5.07;;;2.77;;
12363;SDS011;6246;50.826;4.712;2023-04-25T08:44:48;4.03;;;2.70;;
12363;SDS011;6246;50.826;4.712;2023-04-25T08:47:15;4.37;;;2.70;;
12363;SDS011;6246;50.826;4.712;2023-04-25T08:49:43;5.97;;;3.40;;
12363;SDS011;6246;50.826;4.712;2023-04-25T08:52:10;8.73;;;3.23;;
12363;SDS011;6246;50.826;4.712;2023-04-25T08:54:40;7.13;;;3.10;;
12363;SDS011;6246;50.826;4.712;2023-04-25T08:57:08;4.17;;;2.63;;
12363;SDS011;6246;50.826;4.712;2023-04-25T08:59:34;5.30;;;2.90;;
12363;SDS011;6246;50.826;4.712;2023-04-25T09:02:02;8.40;;;3.20;;
12363;SDS011;6246;50.826;4.712;2023-04-25T09:04:30;7.63;;;3.23;;
12363;SDS011;6246;50.826;4.712;2023-04-25T09:06:56;4.73;;;2.70;;
12363;SDS011;6246;50.826;4.712;2023-04-25T09:09:23;6.90;;;3.27;;
12363;SDS011;6246;50.826;4.712;2023-04-25T09:11:49;6.30;;;3.47;;
12363;SDS011;6246;50.826;4.712;2023-04-25T09:19:25;7.73;;;2.97;;
12363;SDS011;6246;50.826;4.712;2023-04-25T09:21:55;6.57;;;3.13;;
12363;SDS011;6246;50.826;4.712;2023-04-25T09:24:31;6.20;;;3.00;;
12363;SDS011;6246;50.826;4.712;2023-04-25T09:26:57;6.03;;;2.67;;
12363;SDS011;6246;50.826;4.712;2023-04-25T09:29:33;6.77;;;2.83;;
12363;SDS011;6246;50.826;4.712;2023-04-25T09:34:45;6.00;;;3.10;;
12363;SDS011;6246;50.826;4.712;2023-04-25T09:37:16;8.87;;;2.70;;
12363;SDS011;6246;50.826;4.712;2023-04-25T09:39:44;5.53;;;2.73;;
12363;SDS011;6246;50.826;4.712;2023-04-25T09:42:11;5.10;;;2.80;;
12363;SDS011;6246;50.826;4.712;2023-04-25T09:44:37;7.13;;;3.03;;
12363;SDS011;6246;50.826;4.712;2023-04-25T09:47:09;8.80;;;3.10;;
12363;SDS011;6246;50.826;4.712;2023-04-25T09:49:38;5.17;;;2.43;;
12363;SDS011;6246;50.826;4.712;2023-04-25T09:52:04;5.07;;;2.67;;
12363;SDS011;6246;50.826;4.712;2023-04-25T09:54:30;8.20;;;3.30;;
12363;SDS011;6246;50.826;4.712;2023-04-25T09:56:56;11.70;;;3.00;;
12363;SDS011;6246;50.826;4.712;2023-04-25T09:59:23;6.80;;;2.70;;
12363;SDS011;6246;50.826;4.712;2023-04-25T10:01:50;4.10;;;2.17;;
12363;SDS011;6246;50.826;4.712;2023-04-25T10:04:21;7.33;;;2.63;;
12363;SDS011;6246;50.826;4.712;2023-04-25T10:06:48;7.33;;;3.03;;
12363;SDS011;6246;50.826;4.712;2023-04-25T10:09:15;5.33;;;2.50;;
12363;SDS011;6246;50.826;4.712;2023-04-25T10:11:44;6.77;;;2.60;;
12363;SDS011;6246;50.826;4.712;2023-04-25T10:14:10;18.20;;;3.93;;
12363;SDS011;6246;50.826;4.712;2023-04-25T10:16:36;14.57;;;3.17;;
12363;SDS011;6246;50.826;4.712;2023-04-25T10:19:03;12.50;;;3.53;;
12363;SDS011;6246;50.826;4.712;2023-04-25T10:21:29;8.10;;;2.87;;
12363;SDS011;6246;50.826;4.712;2023-04-25T10:23:57;11.27;;;3.13;;
12363;SDS011;6246;50.826;4.712;2023-04-25T10:26:23;11.57;;;3.33;;
12363;SDS011;6246;50.826;4.712;2023-04-25T10:29:00;6.80;;;2.30;;
12363;SDS011;6246;50.826;4.712;2023-04-25T10:31:26;7.27;;;2.77;;
12363;SDS011;6246;50.826;4.712;2023-04-25T10:33:53;6.50;;;2.47;;
12363;SDS011;6246;50.826;4.712;2023-04-25T10:36:20;4.93;;;2.57;;
12363;SDS011;6246;50.826;4.712;2023-04-25T10:38:47;7.03;;;2.80;;
12363;SDS011;6246;50.826;4.712;2023-04-25T10:41:15;5.73;;;2.67;;
12363;SDS011;6246;50.826;4.712;2023-04-25T10:43:44;6.90;;;2.53;;
12363;SDS011;6246;50.826;4.712;2023-04-25T10:48:43;5.27;;;2.40;;
12363;SDS011;6246;50.826;4.712;2023-04-25T10:51:11;5.77;;;2.53;;
12363;SDS011;6246;50.826;4.712;2023-04-25T10:53:37;4.80;;;2.37;;
12363;SDS011;6246;50.826;4.712;2023-04-25T10:56:10;4.50;;;2.07;;
12363;SDS011;6246;50.826;4.712;2023-04-25T10:58:41;5.03;;;2.30;;
12363;SDS011;6246;50.826;4.712;2023-04-25T11:01:07;6.27;;;2.50;;
12363;SDS011;6246;50.826;4.712;2023-04-25T11:03:37;4.90;;;2.43;;
12363;SDS011;6246;50.826;4.712;2023-04-25T11:06:04;6.70;;;2.33;;
12363;SDS011;6246;50.826;4.712;2023-04-25T11:08:35;7.00;;;2.37;;
12363;SDS011;6246;50.826;4.712;2023-04-25T11:11:03;6.47;;;2.60;;
12363;SDS011;6246;50.826;4.712;2023-04-25T11:13:30;9.40;;;2.53;;
12363;SDS011;6246;50.826;4.712;2023-04-25T11:15:56;5.83;;;2.37;;
12363;SDS011;6246;50.826;4.712;2023-04-25T11:18:25;4.97;;;2.30;;
12363;SDS011;6246;50.826;4.712;2023-04-25T11:20:52;7.73;;;2.80;;
12363;SDS011;6246;50.826;4.712;2023-04-25T11:23:18;6.33;;;2.57;;
12363;SDS011;6246;50.826;4.712;2023-04-25T11:25:44;5.23;;;2.13;;
12363;SDS011;6246;50.826;4.712;2023-04-25T11:28:10;6.60;;;2.17;;
12363;SDS011;6246;50.826;4.712;2023-04-25T11:30:36;8.53;;;1.90;;
12363;SDS011;6246;50.826;4.712;2023-04-25T11:33:02;6.60;;;2.13;;
12363;SDS011;6246;50.826;4.712;2023-04-25T11:35:28;4.47;;;2.27;;
12363;SDS011;6246;50.826;4.712;2023-04-25T11:37:54;5.67;;;2.00;;
12363;SDS011;6246;50.826;4.712;2023-04-25T11:40:20;4.97;;;1.80;;
12363;SDS011;6246;50.826;4.712;2023-04-25T11:42:46;5.83;;;2.50;;
12363;SDS011;6246;50.826;4.712;2023-04-25T11:45:13;5.97;;;2.37;;
12363;SDS011;6246;50.826;4.712;2023-04-25T11:47:39;3.43;;;1.57;;
12363;SDS011;6246;50.826;4.712;2023-04-25T11:50:06;4.83;;;1.97;;
12363;SDS011;6246;50.826;4.712;2023-04-25T11:52:39;3.27;;;1.90;;
12363;SDS011;6246;50.826;4.712;2023-04-25T11:55:07;10.33;;;2.23;;
12363;SDS011;6246;50.826;4.712;2023-04-25T11:57:33;4.93;;;1.80;;
12363;SDS011;6246;50.826;4.712;2023-04-25T12:00:18;3.83;;;1.73;;
12363;SDS011;6246;50.826;4.712;2023-04-25T12:02:51;5.97;;;2.00;;
12363;SDS011;6246;50.826;4.712;2023-04-25T12:05:18;6.20;;;2.27;;
12363;SDS011;6246;50.826;4.712;2023-04-25T12:07:45;3.27;;;1.83;;
12363;SDS011;6246;50.826;4.712;2023-04-25T12:10:12;7.97;;;2.00;;
12363;SDS011;6246;50.826;4.712;2023-04-25T12:12:41;4.63;;;1.83;;
12363;SDS011;6246;50.826;4.712;2023-04-25T12:15:08;2.23;;;1.60;;
12363;SDS011;6246;50.826;4.712;2023-04-25T12:17:35;5.50;;;2.20;;
12363;SDS011;6246;50.826;4.712;2023-04-25T12:22:34;2.37;;;1.53;;
12363;SDS011;6246;50.826;4.712;2023-04-25T12:25:01;3.53;;;2.27;;
12363;SDS011;6246;50.826;4.712;2023-04-25T12:27:30;2.50;;;1.87;;
12363;SDS011;6246;50.826;4.712;2023-04-25T12:29:56;3.90;;;1.80;;
12363;SDS011;6246;50.826;4.712;2023-04-25T12:32:23;4.33;;;1.67;;
12363;SDS011;6246;50.826;4.712;2023-04-25T12:34:49;5.73;;;1.73;;
12363;SDS011;6246;50.826;4.712;2023-04-25T12:37:15;2.63;;;1.50;;
12363;SDS011;6246;50.826;4.712;2023-04-25T12:39:41;4.13;;;2.50;;
12363;SDS011;6246;50.826;4.712;2023-04-25T12:42:07;5.87;;;1.97;;
12363;SDS011;6246;50.826;4.712;2023-04-25T12:44:36;3.17;;;1.50;;
12363;SDS011;6246;50.826;4.712;2023-04-25T12:47:02;4.63;;;1.40;;
12363;SDS011;6246;50.826;4.712;2023-04-25T12:49:28;3.27;;;1.40;;
12363;SDS011;6246;50.826;4.712;2023-04-25T12:51:55;3.07;;;1.60;;
12363;SDS011;6246;50.826;4.712;2023-04-25T12:54:21;2.17;;;1.60;;
12363;SDS011;6246;50.826;4.712;2023-04-25T12:56:47;3.50;;;1.87;;
12363;SDS011;6246;50.826;4.712;2023-04-25T12:59:13;1.87;;;0.97;;
12363;SDS011;6246;50.826;4.712;2023-04-25T13:01:39;2.83;;;1.70;;
12363;SDS011;6246;50.826;4.712;2023-04-25T13:04:05;3.20;;;1.57;;
12363;SDS011;6246;50.826;4.712;2023-04-25T13:06:31;1.40;;;1.30;;
12363;SDS011;6246;50.826;4.712;2023-04-25T13:08:57;1.57;;;1.33;;
12363;SDS011;6246;50.826;4.712;2023-04-25T13:11:23;3.47;;;1.37;;
12363;SDS011;6246;50.826;4.712;2023-04-25T13:13:49;1.43;;;1.23;;
12363;SDS011;6246;50.826;4.712;2023-04-25T13:16:15;2.10;;;1.40;;
12363;SDS011;6246;50.826;4.712;2023-04-25T13:18:41;1.73;;;1.20;;
12363;SDS011;6246;50.826;4.712;2023-04-25T13:21:09;3.13;;;1.13;;
12363;SDS011;6246;50.826;4.712;2023-04-25T13:23:36;2.43;;;1.30;;
12363;SDS011;6246;50.826;4.712;2023-04-25T13:26:02;2.80;;;1.57;;
12363;SDS011;6246;50.826;4.712;2023-04-25T13:28:28;2.77;;;1.47;;
12363;SDS011;6246;50.826;4.712;2023-04-25T13:30:54;2.43;;;1.10;;
12363;SDS011;6246;50.826;4.712;2023-04-25T13:33:20;1.67;;;1.00;;
12363;SDS011;6246;50.826;4.712;2023-04-25T13:35:47;1.17;;;0.87;;
12363;SDS011;6246;50.826;4.712;2023-04-25T13:38:21;1.87;;;1.50;;
12363;SDS011;6246;50.826;4.712;2023-04-25T13:40:47;3.03;;;1.47;;
12363;SDS011;6246;50.826;4.712;2023-04-25T13:43:13;2.47;;;1.37;;
12363;SDS011;6246;50.826;4.712;2023-04-25T13:45:39;2.57;;;1.43;;
12363;SDS011;6246;50.826;4.712;2023-04-25T13:48:06;2.90;;;1.60;;
12363;SDS011;6246;50.826;4.712;2023-04-25T13:50:32;4.80;;;1.30;;
12363;SDS011;6246;50.826;4.712;2023-04-25T13:52:58;3.07;;;1.33;;
12363;SDS011;6246;50.826;4.712;2023-04-25T13:55:24;1.13;;;1.00;;
12363;SDS011;6246;50.826;4.712;2023-04-25T13:57:50;7.37;;;1.90;;
12363;SDS011;6246;50.826;4.712;2023-04-25T14:00:16;4.30;;;1.50;;
12363;SDS011;6246;50.826;4.712;2023-04-25T14:02:42;4.70;;;1.53;;
12363;SDS011;6246;50.826;4.712;2023-04-25T14:05:08;5.27;;;1.57;;
12363;SDS011;6246;50.826;4.712;2023-04-25T14:07:35;5.50;;;1.53;;
12363;SDS011;6246;50.826;4.712;2023-04-25T14:10:01;4.43;;;1.17;;
12363;SDS011;6246;50.826;4.712;2023-04-25T14:12:27;1.83;;;1.10;;
12363;SDS011;6246;50.826;4.712;2023-04-25T14:14:54;3.60;;;1.50;;
12363;SDS011;6246;50.826;4.712;2023-04-25T14:17:20;4.57;;;1.47;;
12363;SDS011;6246;50.826;4.712;2023-04-25T14:19:46;2.50;;;1.17;;
12363;SDS011;6246;50.826;4.712;2023-04-25T14:22:13;2.97;;;1.40;;
12363;SDS011;6246;50.826;4.712;2023-04-25T14:24:42;2.07;;;1.23;;
12363;SDS011;6246;50.826;4.712;2023-04-25T14:27:08;3.33;;;0.83;;
12363;SDS011;6246;50.826;4.712;2023-04-25T14:29:35;2.97;;;2.00;;
12363;SDS011;6246;50.826;4.712;2023-04-25T14:32:01;5.27;;;2.57;;
12363;SDS011;6246;50.826;4.712;2023-04-25T14:34:27;9.03;;;3.10;;
12363;SDS011;6246;50.826;4.712;2023-04-25T14:36:53;6.40;;;2.70;;
12363;SDS011;6246;50.826;4.712;2023-04-25T14:39:20;7.00;;;2.83;;
12363;SDS011;6246;50.826;4.712;2023-04-25T14:41:46;6.53;;;3.13;;
12363;SDS011;6246;50.826;4.712;2023-04-25T14:44:12;3.57;;;2.67;;
12363;SDS011;6246;50.826;4.712;2023-04-25T14:46:38;4.77;;;3.07;;
12363;SDS011;6246;50.826;4.712;2023-04-25T14:49:04;5.77;;;3.30;;
12363;SDS011;6246;50.826;4.712;2023-04-25T14:51:30;5.20;;;3.43;;
12363;SDS011;6246;50.826;4.712;2023-04-25T14:53:56;6.37;;;3.33;;
12363;SDS011;6246;50.826;4.712;2023-04-25T14:56:23;6.73;;;3.97;;
12363;SDS011;6246;50.826;4.712;2023-04-25T14:58:49;10.63;;;3.90;;
12363;SDS011;6246;50.826;4.712;2023-04-25T15:01:15;7.03;;;3.80;;